sensor_id;sensor_type;location;lat;lon;timestamp;temperature;humidity
52439;DHT22;38359;53.150;6.504;2022-07-29T00:00:59;16.20;99.90
52439;DHT22;38359;53.150;6.504;2022-07-29T00:03:25;16.20;99.90
52439;DHT22;38359;53.150;6.504;2022-07-29T00:05:50;16.10;99.90
52439;DHT22;38359;53.150;6.504;2022-07-29T00:08:18;16.10;99.90
52439;DHT22;38359;53.150;6.504;2022-07-29T00:10:44;16.10;99.90
52439;DHT22;38359;53.150;6.504;2022-07-29T00:13:10;16.10;99.90
52439;DHT22;38359;53.150;6.504;2022-07-29T00:15:36;16.10;99.90
52439;DHT22;38359;53.150;6.504;2022-07-29T00:18:02;16.10;99.90
52439;DHT22;38359;53.150;6.504;2022-07-29T00:20:28;16.00;99.90
52439;DHT22;38359;53.150;6.504;2022-07-29T00:22:53;16.00;99.90
52439;DHT22;38359;53.150;6.504;2022-07-29T00:25:19;16.10;99.90
52439;DHT22;38359;53.150;6.504;2022-07-29T00:27:45;16.10;99.90
52439;DHT22;38359;53.150;6.504;2022-07-29T00:30:12;16.10;99.90
52439;DHT22;38359;53.150;6.504;2022-07-29T00:32:37;16.10;99.90
52439;DHT22;38359;53.150;6.504;2022-07-29T00:35:04;16.10;99.90
52439;DHT22;38359;53.150;6.504;2022-07-29T00:37:49;16.10;99.90
52439;DHT22;38359;53.150;6.504;2022-07-29T00:40:15;16.00;99.90
52439;DHT22;38359;53.150;6.504;2022-07-29T00:42:42;16.00;99.90
52439;DHT22;38359;53.150;6.504;2022-07-29T00:45:12;16.10;99.90
52439;DHT22;38359;53.150;6.504;2022-07-29T00:47:38;16.00;99.90
52439;DHT22;38359;53.150;6.504;2022-07-29T00:50:06;16.00;99.90
52439;DHT22;38359;53.150;6.504;2022-07-29T00:52:36;16.00;99.90
52439;DHT22;38359;53.150;6.504;2022-07-29T00:55:04;16.00;99.90
52439;DHT22;38359;53.150;6.504;2022-07-29T00:57:32;15.90;99.90
52439;DHT22;38359;53.150;6.504;2022-07-29T00:59:58;15.90;99.90
52439;DHT22;38359;53.150;6.504;2022-07-29T01:02:24;15.80;99.90
52439;DHT22;38359;53.150;6.504;2022-07-29T01:04:50;15.90;99.90
52439;DHT22;38359;53.150;6.504;2022-07-29T01:07:17;15.90;99.90
52439;DHT22;38359;53.150;6.504;2022-07-29T01:09:44;15.90;99.90
52439;DHT22;38359;53.150;6.504;2022-07-29T01:12:18;15.90;99.90
52439;DHT22;38359;53.150;6.504;2022-07-29T01:14:47;15.90;99.90
52439;DHT22;38359;53.150;6.504;2022-07-29T01:29:00;15.70;99.90
52439;DHT22;38359;53.150;6.504;2022-07-29T01:31:54;15.70;99.90
52439;DHT22;38359;53.150;6.504;2022-07-29T01:34:41;15.70;99.90
52439;DHT22;38359;53.150;6.504;2022-07-29T01:37:24;15.80;99.90
52439;DHT22;38359;53.150;6.504;2022-07-29T01:39:55;15.80;99.90
52439;DHT22;38359;53.150;6.504;2022-07-29T01:42:38;15.80;99.90
52439;DHT22;38359;53.150;6.504;2022-07-29T01:45:18;15.70;99.90
52439;DHT22;38359;53.150;6.504;2022-07-29T01:47:56;15.70;99.90
52439;DHT22;38359;53.150;6.504;2022-07-29T01:51:04;15.70;99.90
52439;DHT22;38359;53.150;6.504;2022-07-29T01:53:37;15.70;99.90
52439;DHT22;38359;53.150;6.504;2022-07-29T01:56:10;15.70;99.90
52439;DHT22;38359;53.150;6.504;2022-07-29T01:58:39;15.80;99.90
52439;DHT22;38359;53.150;6.504;2022-07-29T02:01:08;15.80;99.90
52439;DHT22;38359;53.150;6.504;2022-07-29T02:03:36;15.70;99.90
52439;DHT22;38359;53.150;6.504;2022-07-29T02:06:04;15.70;99.90
52439;DHT22;38359;53.150;6.504;2022-07-29T02:08:32;15.70;99.90
52439;DHT22;38359;53.150;6.504;2022-07-29T02:11:00;15.60;99.90
52439;DHT22;38359;53.150;6.504;2022-07-29T02:13:29;15.70;99.90
52439;DHT22;38359;53.150;6.504;2022-07-29T02:15:57;15.70;99.90
52439;DHT22;38359;53.150;6.504;2022-07-29T02:18:25;15.70;99.90
52439;DHT22;38359;53.150;6.504;2022-07-29T02:20:55;15.60;99.90
52439;DHT22;38359;53.150;6.504;2022-07-29T02:23:23;15.60;99.90
52439;DHT22;38359;53.150;6.504;2022-07-29T02:25:56;15.60;99.90
52439;DHT22;38359;53.150;6.504;2022-07-29T02:28:26;15.60;99.90
52439;DHT22;38359;53.150;6.504;2022-07-29T02:30:56;15.60;99.90
52439;DHT22;38359;53.150;6.504;2022-07-29T02:33:24;15.60;99.90
52439;DHT22;38359;53.150;6.504;2022-07-29T02:35:52;15.70;99.90
52439;DHT22;38359;53.150;6.504;2022-07-29T02:38:18;15.70;99.90
52439;DHT22;38359;53.150;6.504;2022-07-29T02:41:10;15.70;99.90
52439;DHT22;38359;53.150;6.504;2022-07-29T02:43:39;15.60;99.90
52439;DHT22;38359;53.150;6.504;2022-07-29T02:46:08;15.60;99.90
52439;DHT22;38359;53.150;6.504;2022-07-29T02:48:43;15.70;99.90
52439;DHT22;38359;53.150;6.504;2022-07-29T02:51:19;15.70;99.90
52439;DHT22;38359;53.150;6.504;2022-07-29T02:53:54;15.70;99.90
52439;DHT22;38359;53.150;6.504;2022-07-29T02:56:27;15.70;99.90
52439;DHT22;38359;53.150;6.504;2022-07-29T02:58:56;15.70;99.90
52439;DHT22;38359;53.150;6.504;2022-07-29T03:01:24;15.70;99.90
52439;DHT22;38359;53.150;6.504;2022-07-29T03:03:54;15.70;99.90
52439;DHT22;38359;53.150;6.504;2022-07-29T03:06:25;15.70;99.90
52439;DHT22;38359;53.150;6.504;2022-07-29T03:08:54;15.70;99.90
52439;DHT22;38359;53.150;6.504;2022-07-29T03:11:20;15.70;99.90
52439;DHT22;38359;53.150;6.504;2022-07-29T03:13:46;15.70;99.90
52439;DHT22;38359;53.150;6.504;2022-07-29T03:16:13;15.70;99.90
52439;DHT22;38359;53.150;6.504;2022-07-29T03:18:39;15.70;99.90
52439;DHT22;38359;53.150;6.504;2022-07-29T03:21:05;15.70;99.90
52439;DHT22;38359;53.150;6.504;2022-07-29T03:23:32;15.70;99.90
52439;DHT22;38359;53.150;6.504;2022-07-29T03:25:57;15.70;99.90
52439;DHT22;38359;53.150;6.504;2022-07-29T03:28:23;15.70;99.90
52439;DHT22;38359;53.150;6.504;2022-07-29T03:30:50;15.70;99.90
52439;DHT22;38359;53.150;6.504;2022-07-29T03:33:15;15.70;99.90
52439;DHT22;38359;53.150;6.504;2022-07-29T03:35:41;15.70;99.90
52439;DHT22;38359;53.150;6.504;2022-07-29T03:38:07;15.70;99.90
52439;DHT22;38359;53.150;6.504;2022-07-29T03:40:47;15.70;99.90
52439;DHT22;38359;53.150;6.504;2022-07-29T03:43:16;15.70;99.90
52439;DHT22;38359;53.150;6.504;2022-07-29T03:45:45;15.70;99.90
52439;DHT22;38359;53.150;6.504;2022-07-29T03:48:20;15.70;99.90
52439;DHT22;38359;53.150;6.504;2022-07-29T03:50:48;15.70;99.90
52439;DHT22;38359;53.150;6.504;2022-07-29T03:53:15;15.70;99.90
52439;DHT22;38359;53.150;6.504;2022-07-29T03:55:52;15.70;99.90
52439;DHT22;38359;53.150;6.504;2022-07-29T03:58:21;15.70;99.90
52439;DHT22;38359;53.150;6.504;2022-07-29T04:00:48;15.70;99.90
52439;DHT22;38359;53.150;6.504;2022-07-29T04:03:14;15.70;99.90
52439;DHT22;38359;53.150;6.504;2022-07-29T04:05:40;15.70;99.90
52439;DHT22;38359;53.150;6.504;2022-07-29T04:08:05;15.70;99.90
52439;DHT22;38359;53.150;6.504;2022-07-29T04:10:31;15.60;99.90
52439;DHT22;38359;53.150;6.504;2022-07-29T04:12:58;15.70;99.90
52439;DHT22;38359;53.150;6.504;2022-07-29T04:15:24;15.70;99.90
52439;DHT22;38359;53.150;6.504;2022-07-29T04:17:51;15.60;99.90
52439;DHT22;38359;53.150;6.504;2022-07-29T04:20:16;15.60;99.90
52439;DHT22;38359;53.150;6.504;2022-07-29T04:22:42;15.50;99.90
52439;DHT22;38359;53.150;6.504;2022-07-29T04:25:10;15.60;99.90
52439;DHT22;38359;53.150;6.504;2022-07-29T04:27:35;15.70;99.90
52439;DHT22;38359;53.150;6.504;2022-07-29T04:30:21;15.60;99.90
52439;DHT22;38359;53.150;6.504;2022-07-29T04:32:47;15.50;99.90
52439;DHT22;38359;53.150;6.504;2022-07-29T04:35:12;15.50;99.90
52439;DHT22;38359;53.150;6.504;2022-07-29T04:37:38;15.50;99.90
52439;DHT22;38359;53.150;6.504;2022-07-29T04:40:04;15.50;99.90
52439;DHT22;38359;53.150;6.504;2022-07-29T04:42:31;15.60;99.90
52439;DHT22;38359;53.150;6.504;2022-07-29T04:44:56;15.60;99.90
52439;DHT22;38359;53.150;6.504;2022-07-29T04:47:22;15.60;99.90
52439;DHT22;38359;53.150;6.504;2022-07-29T04:49:48;15.60;99.90
52439;DHT22;38359;53.150;6.504;2022-07-29T04:52:14;15.60;99.90
52439;DHT22;38359;53.150;6.504;2022-07-29T04:54:39;15.70;99.90
52439;DHT22;38359;53.150;6.504;2022-07-29T04:57:05;15.70;99.90
52439;DHT22;38359;53.150;6.504;2022-07-29T04:59:31;15.60;99.90
52439;DHT22;38359;53.150;6.504;2022-07-29T05:01:57;15.70;99.90
52439;DHT22;38359;53.150;6.504;2022-07-29T05:04:22;15.70;99.90
52439;DHT22;38359;53.150;6.504;2022-07-29T05:06:49;15.70;99.90
52439;DHT22;38359;53.150;6.504;2022-07-29T05:09:15;15.80;99.90
52439;DHT22;38359;53.150;6.504;2022-07-29T05:11:41;15.80;99.90
52439;DHT22;38359;53.150;6.504;2022-07-29T05:14:06;15.80;99.90
52439;DHT22;38359;53.150;6.504;2022-07-29T05:16:32;15.90;99.90
52439;DHT22;38359;53.150;6.504;2022-07-29T05:18:58;15.90;99.90
52439;DHT22;38359;53.150;6.504;2022-07-29T05:21:24;16.00;99.90
52439;DHT22;38359;53.150;6.504;2022-07-29T05:23:50;16.00;99.90
52439;DHT22;38359;53.150;6.504;2022-07-29T05:26:16;16.10;99.90
52439;DHT22;38359;53.150;6.504;2022-07-29T05:28:42;16.00;99.90
52439;DHT22;38359;53.150;6.504;2022-07-29T05:31:07;16.00;99.90
52439;DHT22;38359;53.150;6.504;2022-07-29T05:33:35;16.10;99.90
52439;DHT22;38359;53.150;6.504;2022-07-29T05:36:00;16.20;99.90
52439;DHT22;38359;53.150;6.504;2022-07-29T05:38:28;16.20;99.90
52439;DHT22;38359;53.150;6.504;2022-07-29T05:40:56;16.20;99.90
52439;DHT22;38359;53.150;6.504;2022-07-29T05:43:23;16.10;99.90
52439;DHT22;38359;53.150;6.504;2022-07-29T05:45:49;16.10;99.90
52439;DHT22;38359;53.150;6.504;2022-07-29T05:48:15;16.20;99.90
52439;DHT22;38359;53.150;6.504;2022-07-29T05:50:41;16.20;99.90
52439;DHT22;38359;53.150;6.504;2022-07-29T05:53:06;16.30;99.90
52439;DHT22;38359;53.150;6.504;2022-07-29T05:55:32;16.30;99.90
52439;DHT22;38359;53.150;6.504;2022-07-29T05:57:58;16.30;99.90
52439;DHT22;38359;53.150;6.504;2022-07-29T06:00:24;16.30;99.90
52439;DHT22;38359;53.150;6.504;2022-07-29T06:02:49;16.40;99.90
52439;DHT22;38359;53.150;6.504;2022-07-29T06:05:15;16.40;99.90
52439;DHT22;38359;53.150;6.504;2022-07-29T06:07:41;16.50;99.90
52439;DHT22;38359;53.150;6.504;2022-07-29T06:10:07;16.50;99.90
52439;DHT22;38359;53.150;6.504;2022-07-29T06:12:35;16.60;99.90
52439;DHT22;38359;53.150;6.504;2022-07-29T06:15:00;16.60;99.90
52439;DHT22;38359;53.150;6.504;2022-07-29T06:17:28;16.60;99.90
52439;DHT22;38359;53.150;6.504;2022-07-29T06:19:54;16.70;99.90
52439;DHT22;38359;53.150;6.504;2022-07-29T06:22:19;16.80;99.90
52439;DHT22;38359;53.150;6.504;2022-07-29T06:24:45;16.90;99.90
52439;DHT22;38359;53.150;6.504;2022-07-29T06:27:11;17.00;99.90
52439;DHT22;38359;53.150;6.504;2022-07-29T06:29:37;17.00;99.90
52439;DHT22;38359;53.150;6.504;2022-07-29T06:32:03;17.00;99.90
52439;DHT22;38359;53.150;6.504;2022-07-29T06:34:29;17.10;99.90
52439;DHT22;38359;53.150;6.504;2022-07-29T06:36:55;17.10;99.90
52439;DHT22;38359;53.150;6.504;2022-07-29T06:39:21;17.20;99.90
52439;DHT22;38359;53.150;6.504;2022-07-29T06:41:48;17.30;99.90
52439;DHT22;38359;53.150;6.504;2022-07-29T06:44:14;17.40;99.90
52439;DHT22;38359;53.150;6.504;2022-07-29T06:46:41;17.50;99.90
52439;DHT22;38359;53.150;6.504;2022-07-29T06:49:07;17.60;99.90
52439;DHT22;38359;53.150;6.504;2022-07-29T06:51:33;17.90;99.90
52439;DHT22;38359;53.150;6.504;2022-07-29T06:53:59;17.70;99.90
52439;DHT22;38359;53.150;6.504;2022-07-29T06:56:26;17.60;99.90
52439;DHT22;38359;53.150;6.504;2022-07-29T06:58:51;17.60;99.90
52439;DHT22;38359;53.150;6.504;2022-07-29T07:01:17;17.60;99.90
52439;DHT22;38359;53.150;6.504;2022-07-29T07:03:43;17.60;99.90
52439;DHT22;38359;53.150;6.504;2022-07-29T07:06:09;17.70;99.90
52439;DHT22;38359;53.150;6.504;2022-07-29T07:08:35;17.70;99.90
52439;DHT22;38359;53.150;6.504;2022-07-29T07:11:00;17.90;99.90
52439;DHT22;38359;53.150;6.504;2022-07-29T07:13:27;18.10;99.90
52439;DHT22;38359;53.150;6.504;2022-07-29T07:16:00;18.10;99.90
52439;DHT22;38359;53.150;6.504;2022-07-29T07:18:27;18.10;99.90
52439;DHT22;38359;53.150;6.504;2022-07-29T07:20:53;18.20;99.90
52439;DHT22;38359;53.150;6.504;2022-07-29T07:23:19;18.30;99.90
52439;DHT22;38359;53.150;6.504;2022-07-29T07:25:47;18.40;99.90
52439;DHT22;38359;53.150;6.504;2022-07-29T07:28:13;18.40;99.90
52439;DHT22;38359;53.150;6.504;2022-07-29T07:30:39;18.30;99.90
52439;DHT22;38359;53.150;6.504;2022-07-29T07:33:05;18.40;99.90
52439;DHT22;38359;53.150;6.504;2022-07-29T07:35:31;18.50;99.90
52439;DHT22;38359;53.150;6.504;2022-07-29T07:37:57;18.30;99.90
52439;DHT22;38359;53.150;6.504;2022-07-29T07:40:24;18.30;99.90
52439;DHT22;38359;53.150;6.504;2022-07-29T07:42:50;18.30;99.90
52439;DHT22;38359;53.150;6.504;2022-07-29T07:45:15;18.20;99.90
52439;DHT22;38359;53.150;6.504;2022-07-29T07:47:43;18.20;99.90
52439;DHT22;38359;53.150;6.504;2022-07-29T07:50:10;18.30;99.90
52439;DHT22;38359;53.150;6.504;2022-07-29T07:52:50;18.40;99.90
52439;DHT22;38359;53.150;6.504;2022-07-29T07:55:17;18.40;99.90
52439;DHT22;38359;53.150;6.504;2022-07-29T07:57:45;18.40;99.90
52439;DHT22;38359;53.150;6.504;2022-07-29T08:00:13;18.30;99.90
52439;DHT22;38359;53.150;6.504;2022-07-29T08:02:39;18.20;99.90
52439;DHT22;38359;53.150;6.504;2022-07-29T08:05:25;18.40;99.90
52439;DHT22;38359;53.150;6.504;2022-07-29T08:07:51;18.60;99.90
52439;DHT22;38359;53.150;6.504;2022-07-29T08:10:19;18.60;99.90
52439;DHT22;38359;53.150;6.504;2022-07-29T08:13:05;18.60;99.90
52439;DHT22;38359;53.150;6.504;2022-07-29T08:15:32;18.50;99.90
52439;DHT22;38359;53.150;6.504;2022-07-29T08:17:58;18.50;99.90
52439;DHT22;38359;53.150;6.504;2022-07-29T08:20:24;18.60;99.90
52439;DHT22;38359;53.150;6.504;2022-07-29T08:22:51;18.80;99.90
52439;DHT22;38359;53.150;6.504;2022-07-29T08:25:18;18.90;99.90
52439;DHT22;38359;53.150;6.504;2022-07-29T08:27:46;19.00;99.90
52439;DHT22;38359;53.150;6.504;2022-07-29T08:30:12;18.90;99.90
52439;DHT22;38359;53.150;6.504;2022-07-29T08:32:38;19.00;99.90
52439;DHT22;38359;53.150;6.504;2022-07-29T08:35:04;19.20;99.90
52439;DHT22;38359;53.150;6.504;2022-07-29T08:37:30;19.20;99.90
52439;DHT22;38359;53.150;6.504;2022-07-29T08:39:57;19.30;99.90
52439;DHT22;38359;53.150;6.504;2022-07-29T08:42:22;19.30;99.90
52439;DHT22;38359;53.150;6.504;2022-07-29T08:44:48;19.30;99.90
52439;DHT22;38359;53.150;6.504;2022-07-29T08:47:16;19.40;99.90
52439;DHT22;38359;53.150;6.504;2022-07-29T08:49:42;19.50;99.90
52439;DHT22;38359;53.150;6.504;2022-07-29T08:52:11;19.60;99.90
52439;DHT22;38359;53.150;6.504;2022-07-29T08:54:38;19.70;99.90
52439;DHT22;38359;53.150;6.504;2022-07-29T08:57:05;19.70;99.90
52439;DHT22;38359;53.150;6.504;2022-07-29T08:59:34;19.80;99.90
52439;DHT22;38359;53.150;6.504;2022-07-29T09:02:00;20.00;99.90
52439;DHT22;38359;53.150;6.504;2022-07-29T09:04:30;20.10;99.90
52439;DHT22;38359;53.150;6.504;2022-07-29T09:07:00;20.20;99.90
52439;DHT22;38359;53.150;6.504;2022-07-29T09:09:29;20.20;99.90
52439;DHT22;38359;53.150;6.504;2022-07-29T09:11:55;20.10;99.90
52439;DHT22;38359;53.150;6.504;2022-07-29T09:14:21;20.20;99.90
52439;DHT22;38359;53.150;6.504;2022-07-29T09:16:50;20.50;99.90
52439;DHT22;38359;53.150;6.504;2022-07-29T09:19:25;20.60;99.90
52439;DHT22;38359;53.150;6.504;2022-07-29T09:21:53;20.70;99.90
52439;DHT22;38359;53.150;6.504;2022-07-29T09:27:00;20.50;99.90
52439;DHT22;38359;53.150;6.504;2022-07-29T09:29:27;20.60;99.90
52439;DHT22;38359;53.150;6.504;2022-07-29T09:31:55;20.60;99.90
52439;DHT22;38359;53.150;6.504;2022-07-29T09:34:26;20.60;99.90
52439;DHT22;38359;53.150;6.504;2022-07-29T09:36:54;20.70;99.90
52439;DHT22;38359;53.150;6.504;2022-07-29T09:39:34;20.60;99.90
52439;DHT22;38359;53.150;6.504;2022-07-29T09:42:11;20.60;99.90
52439;DHT22;38359;53.150;6.504;2022-07-29T09:44:49;20.70;99.90
52439;DHT22;38359;53.150;6.504;2022-07-29T09:47:16;20.70;99.90
52439;DHT22;38359;53.150;6.504;2022-07-29T09:49:56;20.80;99.90
52439;DHT22;38359;53.150;6.504;2022-07-29T09:52:26;20.80;99.90
52439;DHT22;38359;53.150;6.504;2022-07-29T09:54:52;20.80;99.90
52439;DHT22;38359;53.150;6.504;2022-07-29T09:57:26;20.80;99.90
52439;DHT22;38359;53.150;6.504;2022-07-29T09:59:57;20.70;99.90
52439;DHT22;38359;53.150;6.504;2022-07-29T10:02:31;20.70;99.90
52439;DHT22;38359;53.150;6.504;2022-07-29T10:05:00;20.60;99.90
52439;DHT22;38359;53.150;6.504;2022-07-29T10:07:53;20.60;99.90
52439;DHT22;38359;53.150;6.504;2022-07-29T10:10:28;20.50;99.90
52439;DHT22;38359;53.150;6.504;2022-07-29T10:12:57;20.50;99.90
52439;DHT22;38359;53.150;6.504;2022-07-29T10:15:26;20.70;99.90
52439;DHT22;38359;53.150;6.504;2022-07-29T10:17:55;20.90;99.90
52439;DHT22;38359;53.150;6.504;2022-07-29T10:20:23;20.90;99.90
52439;DHT22;38359;53.150;6.504;2022-07-29T10:22:50;21.10;99.90
52439;DHT22;38359;53.150;6.504;2022-07-29T10:25:17;21.10;99.90
52439;DHT22;38359;53.150;6.504;2022-07-29T10:27:45;21.30;99.90
52439;DHT22;38359;53.150;6.504;2022-07-29T10:30:13;21.30;99.90
52439;DHT22;38359;53.150;6.504;2022-07-29T10:39:20;21.40;99.90
52439;DHT22;38359;53.150;6.504;2022-07-29T10:44:40;21.40;99.90
52439;DHT22;38359;53.150;6.504;2022-07-29T10:47:06;21.40;99.90
52439;DHT22;38359;53.150;6.504;2022-07-29T10:49:32;21.20;99.90
52439;DHT22;38359;53.150;6.504;2022-07-29T10:57:16;21.40;99.90
52439;DHT22;38359;53.150;6.504;2022-07-29T11:05:18;21.80;99.90
52439;DHT22;38359;53.150;6.504;2022-07-29T11:10:39;21.70;99.90
52439;DHT22;38359;53.150;6.504;2022-07-29T11:13:05;21.70;99.90
52439;DHT22;38359;53.150;6.504;2022-07-29T11:15:55;21.70;99.90
52439;DHT22;38359;53.150;6.504;2022-07-29T11:18:21;21.70;99.90
52439;DHT22;38359;53.150;6.504;2022-07-29T11:20:49;21.70;99.90
52439;DHT22;38359;53.150;6.504;2022-07-29T11:23:30;21.70;99.90
52439;DHT22;38359;53.150;6.504;2022-07-29T11:31:38;21.80;99.90
52439;DHT22;38359;53.150;6.504;2022-07-29T11:39:35;21.90;99.90
52439;DHT22;38359;53.150;6.504;2022-07-29T11:45:04;22.40;99.90
52439;DHT22;38359;53.150;6.504;2022-07-29T11:47:36;22.80;99.90
52439;DHT22;38359;53.150;6.504;2022-07-29T11:50:05;23.00;99.90
52439;DHT22;38359;53.150;6.504;2022-07-29T11:52:54;23.10;99.90
52439;DHT22;38359;53.150;6.504;2022-07-29T11:55:20;23.20;99.90
52439;DHT22;38359;53.150;6.504;2022-07-29T11:57:55;23.40;99.90
52439;DHT22;38359;53.150;6.504;2022-07-29T12:02:51;23.80;99.90
52439;DHT22;38359;53.150;6.504;2022-07-29T12:05:18;23.80;99.90
52439;DHT22;38359;53.150;6.504;2022-07-29T12:07:44;23.90;99.90
52439;DHT22;38359;53.150;6.504;2022-07-29T12:10:10;23.90;99.90
52439;DHT22;38359;53.150;6.504;2022-07-29T12:12:36;24.00;99.90
52439;DHT22;38359;53.150;6.504;2022-07-29T12:15:17;24.00;99.90
52439;DHT22;38359;53.150;6.504;2022-07-29T12:17:46;24.00;99.90
52439;DHT22;38359;53.150;6.504;2022-07-29T12:20:12;23.90;99.90
52439;DHT22;38359;53.150;6.504;2022-07-29T12:22:42;23.90;99.90
52439;DHT22;38359;53.150;6.504;2022-07-29T12:25:13;24.10;99.90
52439;DHT22;38359;53.150;6.504;2022-07-29T12:27:41;24.40;99.90
52439;DHT22;38359;53.150;6.504;2022-07-29T12:30:14;24.20;99.90
52439;DHT22;38359;53.150;6.504;2022-07-29T12:32:45;24.40;99.90
52439;DHT22;38359;53.150;6.504;2022-07-29T12:35:18;24.40;99.90
52439;DHT22;38359;53.150;6.504;2022-07-29T12:37:47;24.30;99.90
52439;DHT22;38359;53.150;6.504;2022-07-29T12:40:17;24.10;99.90
52439;DHT22;38359;53.150;6.504;2022-07-29T12:45:36;24.10;99.60
52439;DHT22;38359;53.150;6.504;2022-07-29T12:48:03;24.00;99.50
52439;DHT22;38359;53.150;6.504;2022-07-29T12:50:30;24.50;99.90
52439;DHT22;38359;53.150;6.504;2022-07-29T12:53:12;24.70;99.70
52439;DHT22;38359;53.150;6.504;2022-07-29T12:55:48;24.90;99.90
52439;DHT22;38359;53.150;6.504;2022-07-29T12:58:41;25.00;99.90
52439;DHT22;38359;53.150;6.504;2022-07-29T13:01:13;24.80;98.90
52439;DHT22;38359;53.150;6.504;2022-07-29T13:03:56;24.80;99.90
52439;DHT22;38359;53.150;6.504;2022-07-29T13:09:10;25.10;99.50
52439;DHT22;38359;53.150;6.504;2022-07-29T13:11:48;25.30;99.20
52439;DHT22;38359;53.150;6.504;2022-07-29T13:17:12;26.10;98.20
52439;DHT22;38359;53.150;6.504;2022-07-29T13:19:49;26.60;97.80
52439;DHT22;38359;53.150;6.504;2022-07-29T13:22:21;26.90;97.50
52439;DHT22;38359;53.150;6.504;2022-07-29T13:27:19;27.30;96.90
52439;DHT22;38359;53.150;6.504;2022-07-29T13:29:46;27.20;95.80
52439;DHT22;38359;53.150;6.504;2022-07-29T13:32:13;27.20;96.00
52439;DHT22;38359;53.150;6.504;2022-07-29T13:34:39;27.80;95.80
52439;DHT22;38359;53.150;6.504;2022-07-29T13:37:06;28.00;95.50
52439;DHT22;38359;53.150;6.504;2022-07-29T13:39:32;28.20;95.10
52439;DHT22;38359;53.150;6.504;2022-07-29T13:41:58;28.20;94.70
52439;DHT22;38359;53.150;6.504;2022-07-29T13:44:23;28.20;94.60
52439;DHT22;38359;53.150;6.504;2022-07-29T13:46:49;28.80;94.40
52439;DHT22;38359;53.150;6.504;2022-07-29T13:49:15;28.90;94.00
52439;DHT22;38359;53.150;6.504;2022-07-29T13:51:41;29.20;94.10
52439;DHT22;38359;53.150;6.504;2022-07-29T13:54:07;29.00;94.00
52439;DHT22;38359;53.150;6.504;2022-07-29T13:56:32;29.30;93.40
52439;DHT22;38359;53.150;6.504;2022-07-29T13:58:59;29.80;93.60
52439;DHT22;38359;53.150;6.504;2022-07-29T14:01:25;30.00;92.40
52439;DHT22;38359;53.150;6.504;2022-07-29T14:03:53;29.50;91.60
52439;DHT22;38359;53.150;6.504;2022-07-29T14:06:18;29.70;91.60
52439;DHT22;38359;53.150;6.504;2022-07-29T14:08:44;29.90;91.70
52439;DHT22;38359;53.150;6.504;2022-07-29T14:11:10;29.80;90.50
52439;DHT22;38359;53.150;6.504;2022-07-29T14:13:36;30.10;91.50
52439;DHT22;38359;53.150;6.504;2022-07-29T14:16:02;30.70;91.30
52439;DHT22;38359;53.150;6.504;2022-07-29T14:18:27;30.90;91.10
52439;DHT22;38359;53.150;6.504;2022-07-29T14:20:53;30.70;90.60
52439;DHT22;38359;53.150;6.504;2022-07-29T14:23:22;30.80;90.30
52439;DHT22;38359;53.150;6.504;2022-07-29T14:25:47;31.20;90.00
52439;DHT22;38359;53.150;6.504;2022-07-29T14:28:13;31.20;90.10
52439;DHT22;38359;53.150;6.504;2022-07-29T14:30:39;31.80;89.90
52439;DHT22;38359;53.150;6.504;2022-07-29T14:33:05;31.40;89.80
52439;DHT22;38359;53.150;6.504;2022-07-29T14:35:31;31.60;89.40
52439;DHT22;38359;53.150;6.504;2022-07-29T14:37:57;31.50;87.50
52439;DHT22;38359;53.150;6.504;2022-07-29T14:40:22;31.70;87.40
52439;DHT22;38359;53.150;6.504;2022-07-29T14:42:48;31.40;87.20
52439;DHT22;38359;53.150;6.504;2022-07-29T14:45:14;32.00;87.80
52439;DHT22;38359;53.150;6.504;2022-07-29T14:47:40;32.10;87.40
52439;DHT22;38359;53.150;6.504;2022-07-29T14:50:06;32.20;87.30
52439;DHT22;38359;53.150;6.504;2022-07-29T14:52:32;32.10;86.00
52439;DHT22;38359;53.150;6.504;2022-07-29T14:54:58;31.40;85.90
52439;DHT22;38359;53.150;6.504;2022-07-29T14:57:27;30.80;86.10
52439;DHT22;38359;53.150;6.504;2022-07-29T14:59:52;30.60;86.20
52439;DHT22;38359;53.150;6.504;2022-07-29T15:02:18;30.70;88.10
52439;DHT22;38359;53.150;6.504;2022-07-29T15:04:44;30.90;87.70
52439;DHT22;38359;53.150;6.504;2022-07-29T15:07:11;31.10;88.00
52439;DHT22;38359;53.150;6.504;2022-07-29T15:09:37;31.00;87.30
52439;DHT22;38359;53.150;6.504;2022-07-29T15:12:03;31.10;87.80
52439;DHT22;38359;53.150;6.504;2022-07-29T15:14:30;31.10;87.60
52439;DHT22;38359;53.150;6.504;2022-07-29T15:16:57;30.80;86.80
52439;DHT22;38359;53.150;6.504;2022-07-29T15:19:23;31.10;86.90
52439;DHT22;38359;53.150;6.504;2022-07-29T15:21:49;31.50;87.20
52439;DHT22;38359;53.150;6.504;2022-07-29T15:24:18;31.80;86.00
52439;DHT22;38359;53.150;6.504;2022-07-29T15:26:45;31.80;86.30
52439;DHT22;38359;53.150;6.504;2022-07-29T15:29:11;31.00;86.10
52439;DHT22;38359;53.150;6.504;2022-07-29T15:31:37;30.00;86.40
52439;DHT22;38359;53.150;6.504;2022-07-29T15:34:03;30.70;87.50
52439;DHT22;38359;53.150;6.504;2022-07-29T15:36:29;31.50;86.80
52439;DHT22;38359;53.150;6.504;2022-07-29T15:38:55;32.00;85.30
52439;DHT22;38359;53.150;6.504;2022-07-29T15:41:21;32.30;86.10
52439;DHT22;38359;53.150;6.504;2022-07-29T15:43:47;32.80;84.60
52439;DHT22;38359;53.150;6.504;2022-07-29T15:46:15;33.30;85.40
52439;DHT22;38359;53.150;6.504;2022-07-29T15:49:02;33.00;84.10
52439;DHT22;38359;53.150;6.504;2022-07-29T15:51:31;33.70;83.00
52439;DHT22;38359;53.150;6.504;2022-07-29T15:53:57;33.00;81.00
52439;DHT22;38359;53.150;6.504;2022-07-29T15:56:23;32.40;82.60
52439;DHT22;38359;53.150;6.504;2022-07-29T15:58:52;31.80;82.50
52439;DHT22;38359;53.150;6.504;2022-07-29T16:01:18;30.80;83.00
52439;DHT22;38359;53.150;6.504;2022-07-29T16:03:44;30.60;84.60
52439;DHT22;38359;53.150;6.504;2022-07-29T16:06:10;30.70;84.50
52439;DHT22;38359;53.150;6.504;2022-07-29T16:08:35;31.40;84.50
52439;DHT22;38359;53.150;6.504;2022-07-29T16:11:03;32.20;85.40
52439;DHT22;38359;53.150;6.504;2022-07-29T16:13:28;32.80;84.40
52439;DHT22;38359;53.150;6.504;2022-07-29T16:15:54;32.70;83.70
52439;DHT22;38359;53.150;6.504;2022-07-29T16:18:20;31.80;83.70
52439;DHT22;38359;53.150;6.504;2022-07-29T16:20:46;31.30;82.90
52439;DHT22;38359;53.150;6.504;2022-07-29T16:23:11;31.40;83.40
52439;DHT22;38359;53.150;6.504;2022-07-29T16:25:38;31.50;82.70
52439;DHT22;38359;53.150;6.504;2022-07-29T16:28:04;31.30;84.00
52439;DHT22;38359;53.150;6.504;2022-07-29T16:30:30;31.60;84.60
52439;DHT22;38359;53.150;6.504;2022-07-29T16:32:56;31.50;85.10
52439;DHT22;38359;53.150;6.504;2022-07-29T16:35:22;31.50;85.30
52439;DHT22;38359;53.150;6.504;2022-07-29T16:37:48;32.10;86.40
52439;DHT22;38359;53.150;6.504;2022-07-29T16:40:14;32.70;85.40
52439;DHT22;38359;53.150;6.504;2022-07-29T16:42:40;33.20;84.60